Time;durP1;ratioP1;P1;durP2;ratioP2;P2;SDS_P1;SDS_P2;PMS_P1;PMS_P2;Temp;Humidity;BMP_temperature;BMP_pressure;BME280_temperature;BME280_humidity;BME280_pressure;Samples;Min_cycle;Max_cycle;Signal;HPM_P1;HPM_P2
2022/01/05 00:01:35;;;;;;;5.30;2.40;;;5.10;74.90;;;;;;6189846;23;20169;-86
2022/01/05 00:04:01;;;;;;;10.85;2.05;;;5.00;74.80;;;;;;6190209;23;20162;-86
2022/01/05 00:06:26;;;;;;;9.33;2.40;;;5.10;75.20;;;;;;6190697;23;20196;-87
2022/01/05 00:08:53;;;;;;;8.00;2.37;;;5.10;75.40;;;;;;6190649;23;20211;-87
2022/01/05 00:11:19;;;;;;;3.05;2.30;;;5.10;75.40;;;;;;6191502;23;20220;-87
2022/01/05 00:13:45;;;;;;;8.63;2.13;;;5.00;75.50;;;;;;6190399;23;20157;-87
2022/01/05 00:16:11;;;;;;;5.80;2.43;;;5.00;75.30;;;;;;6191484;23;20185;-87
2022/01/05 00:18:37;;;;;;;13.73;2.92;;;5.10;75.50;;;;;;6194178;23;20157;-87
2022/01/05 00:21:04;;;;;;;7.23;2.40;;;5.10;75.80;;;;;;6199044;23;20184;-88
2022/01/05 00:23:30;;;;;;;6.82;1.95;;;5.10;75.50;;;;;;6198544;23;20168;-88
2022/01/05 00:25:56;;;;;;;12.07;2.07;;;5.00;75.50;;;;;;6189854;23;20181;-86
2022/01/05 00:28:22;;;;;;;10.87;2.17;;;5.00;75.50;;;;;;6190863;23;20380;-87
2022/01/05 00:30:48;;;;;;;7.63;1.50;;;5.10;75.40;;;;;;6189708;23;20493;-85
2022/01/05 00:33:15;;;;;;;7.80;2.63;;;5.00;75.00;;;;;;6190349;23;20169;-88
2022/01/05 00:35:42;;;;;;;8.35;2.13;;;5.00;74.90;;;;;;6193130;23;20894;-87
2022/01/05 00:38:07;;;;;;;2.42;1.65;;;5.00;75.20;;;;;;6220616;23;20156;-87
2022/01/05 00:40:33;;;;;;;8.80;3.90;;;5.00;75.70;;;;;;6195346;23;20157;-87
2022/01/05 00:42:59;;;;;;;8.27;3.53;;;5.00;76.20;;;;;;6220601;23;20391;-87
2022/01/05 00:45:25;;;;;;;8.43;2.43;;;5.00;76.70;;;;;;6191986;23;20189;-87
2022/01/05 00:47:50;;;;;;;13.77;2.83;;;5.00;76.60;;;;;;6190374;23;20157;-87
2022/01/05 00:50:16;;;;;;;6.70;2.50;;;4.90;76.80;;;;;;6189638;23;20172;-87
2022/01/05 00:52:42;;;;;;;5.57;2.40;;;5.00;76.80;;;;;;6216475;23;20239;-87
2022/01/05 00:55:08;;;;;;;4.53;2.80;;;5.00;76.80;;;;;;6216635;23;20411;-87
2022/01/05 00:57:33;;;;;;;11.47;4.63;;;5.00;76.80;;;;;;6192880;23;20227;-87
2022/01/05 00:59:59;;;;;;;5.63;2.07;;;5.00;76.50;;;;;;6197253;23;20383;-87
2022/01/05 01:02:25;;;;;;;16.47;2.20;;;5.00;76.50;;;;;;6190613;23;20161;-87
2022/01/05 01:04:51;;;;;;;10.17;2.87;;;4.90;76.50;;;;;;6194346;23;20545;-88
2022/01/05 01:07:16;;;;;;;4.77;2.23;;;5.00;76.50;;;;;;6205766;23;20203;-87
2022/01/05 01:09:42;;;;;;;7.87;2.50;;;5.00;76.70;;;;;;6190259;23;20188;-87
2022/01/05 01:12:09;;;;;;;10.13;2.57;;;5.00;76.60;;;;;;6190183;23;20227;-87
2022/01/05 01:14:34;;;;;;;12.10;3.00;;;5.00;76.70;;;;;;6190038;23;20157;-87
2022/01/05 01:17:00;;;;;;;6.13;2.53;;;5.00;76.50;;;;;;6191789;23;20173;-87
2022/01/05 01:19:26;;;;;;;7.67;2.23;;;5.00;76.40;;;;;;6206182;23;20156;-88
2022/01/05 01:21:52;;;;;;;6.38;2.13;;;5.00;76.10;;;;;;6206380;23;20753;-87
2022/01/05 01:24:18;;;;;;;7.05;2.60;;;5.00;76.00;;;;;;6202897;23;20157;-87
2022/01/05 01:26:44;;;;;;;7.47;3.33;;;5.00;76.00;;;;;;6195744;23;20196;-87
2022/01/05 01:29:09;;;;;;;6.77;2.40;;;5.00;76.10;;;;;;6190251;23;20153;-87
2022/01/05 01:31:35;;;;;;;6.40;2.63;;;4.90;75.90;;;;;;6189596;23;20866;-87
2022/01/05 01:34:01;;;;;;;6.03;1.95;;;4.90;76.00;;;;;;6189412;23;20504;-87
2022/01/05 01:36:27;;;;;;;3.60;2.50;;;4.80;75.90;;;;;;6200440;23;20200;-88
2022/01/05 01:38:52;;;;;;;10.37;2.27;;;4.90;76.10;;;;;;6215130;23;20176;-86
2022/01/05 01:41:18;;;;;;;10.23;2.03;;;4.90;76.00;;;;;;6191594;23;20591;-87
2022/01/05 01:43:44;;;;;;;6.28;2.70;;;4.90;76.00;;;;;;6190073;23;20215;-87
2022/01/05 01:46:10;;;;;;;7.30;1.43;;;4.90;76.20;;;;;;6189494;23;20189;-87
2022/01/05 01:48:36;;;;;;;5.93;2.73;;;4.80;76.10;;;;;;6189877;23;20416;-87
2022/01/05 01:51:23;;;;;;;8.95;2.55;;;4.70;75.80;;;;;;6216197;23;20373;-87
2022/01/05 01:53:50;;;;;;;16.45;3.55;;;4.70;75.80;;;;;;6189262;23;20165;-87
2022/01/05 01:56:16;;;;;;;7.07;2.35;;;4.70;75.90;;;;;;6189513;23;20184;-87
2022/01/05 01:58:44;;;;;;;11.02;2.70;;;4.70;76.00;;;;;;6189578;23;20154;-87
2022/01/05 02:01:09;;;;;;;6.45;2.17;;;4.70;76.30;;;;;;6189519;23;20165;-87
2022/01/05 02:03:35;;;;;;;7.83;2.63;;;4.80;77.30;;;;;;6218473;23;20157;-87
2022/01/05 02:06:01;;;;;;;11.70;2.30;;;4.60;76.20;;;;;;6194688;23;20475;-87
2022/01/05 02:08:27;;;;;;;7.93;2.50;;;4.70;76.10;;;;;;6197970;23;20181;-86
2022/01/05 02:10:54;;;;;;;12.77;2.47;;;4.60;75.70;;;;;;6195161;23;20180;-87
2022/01/05 02:13:19;;;;;;;9.27;2.67;;;4.60;75.40;;;;;;6190032;23;20158;-87
2022/01/05 02:15:46;;;;;;;16.13;2.50;;;4.50;75.20;;;;;;6193540;23;20224;-87
2022/01/05 02:20:57;;;;;;;8.32;2.05;;;4.50;75.30;;;;;;6227375;23;20167;-87
2022/01/05 02:23:22;;;;;;;6.72;2.40;;;4.50;75.60;;;;;;6192463;23;20230;-87
2022/01/05 02:25:48;;;;;;;7.77;3.13;;;4.40;74.80;;;;;;6227014;23;20177;-87
2022/01/05 02:28:14;;;;;;;3.80;2.27;;;4.50;75.20;;;;;;6197565;23;20568;-87
2022/01/05 02:30:43;;;;;;;13.23;2.73;;;4.60;74.90;;;;;;6191427;23;20173;-86
2022/01/05 02:33:09;;;;;;;10.40;3.38;;;4.50;75.00;;;;;;6191320;23;20154;-87
2022/01/05 02:35:35;;;;;;;13.20;1.90;;;4.40;74.50;;;;;;6191190;23;20181;-87
2022/01/05 02:38:01;;;;;;;5.80;2.07;;;4.40;74.50;;;;;;6191889;23;20168;-87
2022/01/05 02:40:27;;;;;;;9.55;2.38;;;4.40;74.00;;;;;;6191994;23;20888;-87
2022/01/05 02:42:56;;;;;;;9.55;2.47;;;4.40;73.90;;;;;;6191718;23;20157;-87
2022/01/05 02:45:22;;;;;;;3.72;1.73;;;4.40;73.50;;;;;;6191934;23;20188;-87
2022/01/05 02:47:48;;;;;;;8.73;2.57;;;4.40;73.30;;;;;;6197212;23;20157;-87
2022/01/05 02:50:14;;;;;;;5.03;2.78;;;4.40;73.30;;;;;;6200254;23;20426;-87
2022/01/05 02:52:41;;;;;;;11.60;2.92;;;4.40;73.30;;;;;;6200822;23;20196;-87
2022/01/05 02:55:08;;;;;;;3.67;1.70;;;4.40;73.40;;;;;;6192350;23;20637;-87
2022/01/05 02:57:34;;;;;;;5.78;1.90;;;4.40;73.20;;;;;;6221222;23;20221;-87
2022/01/05 03:00:00;;;;;;;5.15;2.05;;;4.40;73.40;;;;;;6203264;23;20145;-87
2022/01/05 03:02:25;;;;;;;5.30;2.17;;;4.40;73.60;;;;;;6203650;23;20176;-87
2022/01/05 03:04:58;;;;;;;7.10;2.33;;;4.40;73.50;;;;;;6191840;23;20388;-87
2022/01/05 03:07:24;;;;;;;7.70;1.88;;;4.40;73.70;;;;;;6191095;23;20196;-86
2022/01/05 03:09:50;;;;;;;12.47;2.77;;;4.30;73.30;;;;;;6190928;23;20157;-86
2022/01/05 03:12:15;;;;;;;12.00;2.30;;;4.30;73.50;;;;;;6193523;23;20241;-87
2022/01/05 03:14:41;;;;;;;9.03;2.40;;;4.20;73.40;;;;;;6206120;23;20152;-87
2022/01/05 03:17:07;;;;;;;10.10;2.70;;;4.30;73.20;;;;;;6213196;23;20176;-87
2022/01/05 03:19:32;;;;;;;5.53;2.10;;;4.20;73.30;;;;;;6214785;23;20407;-86
2022/01/05 03:21:58;;;;;;;6.93;2.40;;;4.30;73.30;;;;;;6192542;23;20150;-87
2022/01/05 03:24:24;;;;;;;2.73;1.60;;;4.40;73.30;;;;;;6190901;23;20161;-87
2022/01/05 03:26:49;;;;;;;9.30;3.47;;;4.40;73.30;;;;;;6194016;23;20263;-87
2022/01/05 03:29:15;;;;;;;2.53;1.80;;;4.40;72.90;;;;;;6206995;23;20161;-88
2022/01/05 03:31:41;;;;;;;8.70;2.20;;;4.40;73.20;;;;;;6215138;23;20157;-87
2022/01/05 03:34:06;;;;;;;9.60;2.97;;;4.40;72.70;;;;;;6207857;23;20232;-87
2022/01/05 03:36:33;;;;;;;10.20;2.80;;;4.40;72.70;;;;;;6224143;23;20173;-87
2022/01/05 03:38:59;;;;;;;10.82;2.53;;;4.30;72.80;;;;;;6197059;23;20387;-88
2022/01/05 03:41:25;;;;;;;8.20;2.20;;;4.30;73.30;;;;;;6223070;23;20157;-87
2022/01/05 03:43:50;;;;;;;6.20;2.67;;;4.30;73.40;;;;;;6194368;23;20670;-87
2022/01/05 03:46:16;;;;;;;15.60;2.90;;;4.30;73.50;;;;;;6220691;23;20181;-87
2022/01/05 03:48:42;;;;;;;11.27;3.10;;;4.30;73.80;;;;;;6192608;23;20211;-86
2022/01/05 03:51:08;;;;;;;17.27;4.00;;;4.30;74.20;;;;;;6217229;23;20157;-85
2022/01/05 03:53:33;;;;;;;9.73;2.23;;;4.30;74.50;;;;;;6216252;23;20373;-87
2022/01/05 03:56:01;;;;;;;7.40;2.37;;;4.20;74.40;;;;;;6190082;23;20183;-87
2022/01/05 03:58:27;;;;;;;16.75;3.00;;;4.30;74.80;;;;;;6190045;23;20395;-87
2022/01/05 04:00:53;;;;;;;12.10;3.33;;;4.30;74.80;;;;;;6190476;23;20184;-87
2022/01/05 04:03:19;;;;;;;16.93;3.40;;;4.40;75.00;;;;;;6216954;23;20610;-87
2022/01/05 04:05:45;;;;;;;10.60;2.95;;;4.50;75.10;;;;;;6189900;23;20447;-87
2022/01/05 04:08:11;;;;;;;18.27;2.83;;;4.60;75.30;;;;;;6190779;23;20153;-86
2022/01/05 04:10:37;;;;;;;17.90;2.78;;;4.60;75.20;;;;;;6217348;23;20220;-87
2022/01/05 04:13:03;;;;;;;13.93;2.75;;;4.50;75.10;;;;;;6192247;23;20150;-87
2022/01/05 04:15:29;;;;;;;13.00;2.67;;;4.50;75.10;;;;;;6196371;23;20231;-87
2022/01/05 04:17:54;;;;;;;10.77;3.00;;;4.40;74.80;;;;;;6195270;23;20161;-87
2022/01/05 04:20:20;;;;;;;13.00;3.17;;;4.50;75.00;;;;;;6219868;23;20157;-87
2022/01/05 04:22:46;;;;;;;11.43;2.88;;;4.50;75.00;;;;;;6190059;23;20183;-87
2022/01/05 04:25:13;;;;;;;9.02;1.98;;;4.50;75.10;;;;;;6190418;23;20177;-87
2022/01/05 04:27:39;;;;;;;14.52;2.78;;;4.50;75.00;;;;;;6190346;23;20154;-87
2022/01/05 04:30:10;;;;;;;7.70;2.43;;;4.60;75.00;;;;;;6216825;23;20149;-87
2022/01/05 04:32:36;;;;;;;13.98;2.72;;;4.50;75.10;;;;;;6189939;23;20153;-87
2022/01/05 04:35:14;;;;;;;18.02;2.97;;;4.50;75.30;;;;;;6190741;23;20164;-87
2022/01/05 04:37:41;;;;;;;10.88;3.70;;;4.50;75.40;;;;;;6190689;23;20150;-87
2022/01/05 04:40:09;;;;;;;6.15;2.80;;;4.50;75.40;;;;;;6190434;23;20158;-87
2022/01/05 04:42:34;;;;;;;8.25;2.65;;;4.50;75.40;;;;;;6190267;23;20153;-87
2022/01/05 04:45:00;;;;;;;12.13;2.60;;;4.60;75.50;;;;;;6190203;23;20184;-86
2022/01/05 04:47:26;;;;;;;9.47;2.20;;;4.40;75.40;;;;;;6190570;23;20185;-87
2022/01/05 04:49:52;;;;;;;8.97;3.13;;;4.50;75.60;;;;;;6190817;23;20185;-87
2022/01/05 04:52:18;;;;;;;13.37;3.23;;;4.40;75.40;;;;;;6190218;23;20184;-87
2022/01/05 04:54:43;;;;;;;17.03;2.47;;;4.50;75.40;;;;;;6189858;23;20380;-87
2022/01/05 04:57:09;;;;;;;15.13;3.63;;;4.30;75.40;;;;;;6194719;23;20157;-88
2022/01/05 04:59:35;;;;;;;16.63;3.87;;;4.50;75.70;;;;;;6208443;23;20403;-87
2022/01/05 05:02:01;;;;;;;15.57;2.93;;;4.40;75.80;;;;;;6197153;23;20416;-87
2022/01/05 05:04:27;;;;;;;14.10;3.20;;;4.40;76.00;;;;;;6197101;23;20423;-87
2022/01/05 05:06:53;;;;;;;8.33;2.37;;;4.40;76.10;;;;;;6196670;23;20192;-87
2022/01/05 05:09:19;;;;;;;9.43;2.77;;;4.40;76.20;;;;;;6205543;23;20153;-87
2022/01/05 05:11:45;;;;;;;7.67;2.90;;;4.30;76.40;;;;;;6209721;23;20384;-87
2022/01/05 05:14:10;;;;;;;11.30;2.63;;;4.30;76.60;;;;;;6204465;23;20901;-87
2022/01/05 05:16:36;;;;;;;15.43;3.37;;;4.20;76.70;;;;;;6190363;23;20177;-86
2022/01/05 05:19:02;;;;;;;7.43;3.55;;;4.10;76.80;;;;;;6216666;23;20910;-87
2022/01/05 05:21:28;;;;;;;8.10;2.33;;;4.20;77.00;;;;;;6190038;23;20211;-87
2022/01/05 05:23:54;;;;;;;7.80;2.70;;;4.20;77.00;;;;;;6190115;23;20183;-87
2022/01/05 05:26:19;;;;;;;15.33;3.63;;;4.20;77.10;;;;;;6208429;23;20271;-86
2022/01/05 05:28:45;;;;;;;12.30;2.87;;;4.10;77.40;;;;;;6204138;23;20157;-87
2022/01/05 05:31:11;;;;;;;4.43;2.40;;;4.20;77.80;;;;;;6190083;23;20179;-87
2022/01/05 05:33:37;;;;;;;8.23;2.88;;;4.10;77.80;;;;;;6189190;23;20552;-87
2022/01/05 05:36:03;;;;;;;16.55;3.30;;;4.10;77.80;;;;;;6189685;23;20173;-87
2022/01/05 05:38:29;;;;;;;29.40;4.43;;;4.10;78.00;;;;;;6190368;23;20161;-87
2022/01/05 05:40:55;;;;;;;18.07;5.20;;;4.10;78.10;;;;;;6189653;23;20400;-87
2022/01/05 05:43:21;;;;;;;14.43;3.30;;;4.20;78.10;;;;;;6189551;23;20392;-87
2022/01/05 05:45:47;;;;;;;19.17;2.93;;;4.10;78.40;;;;;;6189245;23;20431;-87
2022/01/05 05:48:12;;;;;;;10.45;3.03;;;4.10;78.40;;;;;;6189863;23;20160;-87
2022/01/05 05:50:38;;;;;;;12.00;2.50;;;4.10;78.40;;;;;;6189254;23;20157;-87
2022/01/05 05:53:05;;;;;;;18.73;3.30;;;4.20;78.50;;;;;;6216155;23;20374;-87
2022/01/05 05:55:31;;;;;;;7.47;2.85;;;4.20;78.50;;;;;;6188944;23;20408;-87
2022/01/05 05:57:57;;;;;;;13.23;2.67;;;4.10;78.70;;;;;;6188582;23;20221;-87
2022/01/05 06:00:22;;;;;;;9.10;2.80;;;4.10;78.70;;;;;;6190365;23;20406;-87
2022/01/05 06:02:48;;;;;;;16.97;2.80;;;4.20;78.70;;;;;;6191940;23;20207;-87
2022/01/05 06:05:14;;;;;;;12.48;2.55;;;4.20;78.60;;;;;;6189927;23;20182;-85
2022/01/05 06:07:40;;;;;;;15.43;2.70;;;4.30;78.70;;;;;;6190794;23;20614;-86
2022/01/05 06:10:06;;;;;;;14.47;2.53;;;4.40;78.70;;;;;;6217381;23;20211;-87
2022/01/05 06:12:32;;;;;;;13.48;3.25;;;4.50;78.60;;;;;;6216606;23;20173;-87
2022/01/05 06:14:58;;;;;;;7.43;2.60;;;4.50;78.50;;;;;;6190260;23;20256;-87
2022/01/05 06:17:23;;;;;;;12.60;3.00;;;4.50;78.20;;;;;;6191157;23;20380;-87
2022/01/05 06:19:49;;;;;;;8.87;2.40;;;4.50;78.10;;;;;;6217187;23;20154;-87
2022/01/05 06:22:14;;;;;;;19.13;4.00;;;4.60;78.00;;;;;;6190794;23;20248;-87
2022/01/05 06:24:42;;;;;;;12.53;3.53;;;4.60;78.10;;;;;;6192234;23;20176;-87
2022/01/05 06:27:09;;;;;;;6.38;2.90;;;4.60;78.00;;;;;;6197238;23;20185;-87
2022/01/05 06:29:37;;;;;;;11.55;3.53;;;4.70;78.10;;;;;;6197309;23;20242;-87
2022/01/05 06:32:03;;;;;;;15.27;3.20;;;4.70;77.70;;;;;;6195369;23;20149;-88
2022/01/05 06:34:29;;;;;;;10.98;3.40;;;4.70;77.80;;;;;;6197222;23;20215;-87
2022/01/05 06:36:54;;;;;;;9.70;3.53;;;4.70;77.70;;;;;;6201005;23;20173;-88
2022/01/05 06:39:20;;;;;;;13.93;3.80;;;4.70;77.70;;;;;;6201663;23;20588;-87
2022/01/05 06:41:46;;;;;;;9.30;2.90;;;4.60;77.70;;;;;;6223328;23;20595;-88
2022/01/05 06:44:11;;;;;;;13.30;2.63;;;4.70;77.90;;;;;;6193426;23;20157;-87
2022/01/05 06:46:37;;;;;;;20.67;4.47;;;4.80;77.80;;;;;;6191922;23;20192;-88
2022/01/05 06:49:03;;;;;;;9.33;3.30;;;4.80;77.80;;;;;;6190890;23;20412;-87
2022/01/05 06:51:29;;;;;;;7.80;3.03;;;4.80;77.90;;;;;;6191854;23;20385;-87
2022/01/05 06:53:55;;;;;;;14.70;3.30;;;4.90;77.90;;;;;;6191887;23;20156;-88
2022/01/05 06:56:20;;;;;;;16.20;3.00;;;4.80;77.80;;;;;;6191318;23;20408;-87
2022/01/05 06:58:46;;;;;;;15.83;3.30;;;4.70;78.00;;;;;;6191852;23;20456;-87
2022/01/05 07:01:12;;;;;;;10.77;2.47;;;4.70;78.10;;;;;;6193380;23;20157;-87
2022/01/05 07:03:37;;;;;;;8.43;2.70;;;4.70;78.10;;;;;;6201885;23;20878;-87
2022/01/05 07:06:04;;;;;;;9.27;2.73;;;4.70;78.20;;;;;;6196878;23;20446;-87
2022/01/05 07:08:30;;;;;;;8.15;2.80;;;4.70;78.40;;;;;;6195042;23;20162;-87
2022/01/05 07:11:06;;;;;;;22.10;3.80;;;4.70;78.70;;;;;;6190775;23;20157;-88
2022/01/05 07:13:32;;;;;;;8.75;3.00;;;4.70;78.80;;;;;;6217159;23;20360;-88
2022/01/05 07:15:57;;;;;;;5.97;3.10;;;4.90;79.00;;;;;;6191450;23;20173;-88
2022/01/05 07:18:23;;;;;;;13.93;3.40;;;4.90;78.90;;;;;;6195075;23;20411;-88
2022/01/05 07:20:49;;;;;;;10.03;3.23;;;4.70;79.00;;;;;;6216939;23;20161;-88
2022/01/05 07:23:15;;;;;;;13.17;2.80;;;4.80;79.10;;;;;;6197434;23;20260;-87
2022/01/05 07:25:40;;;;;;;7.00;3.10;;;4.80;79.20;;;;;;6200163;23;20188;-88
2022/01/05 07:28:06;;;;;;;11.60;3.20;;;4.90;79.30;;;;;;6192321;23;20697;-88
2022/01/05 07:30:32;;;;;;;12.88;3.30;;;4.90;79.30;;;;;;6216930;23;20180;-88
2022/01/05 07:32:58;;;;;;;16.50;3.30;;;4.90;79.20;;;;;;6191750;23;20157;-88
2022/01/05 07:35:23;;;;;;;20.90;3.83;;;4.90;79.20;;;;;;6190703;23;20258;-88
2022/01/05 07:37:49;;;;;;;11.50;3.37;;;4.90;79.20;;;;;;6191842;23;20573;-88
2022/01/05 07:40:15;;;;;;;12.30;3.40;;;4.90;79.30;;;;;;6190870;23;20545;-88
2022/01/05 07:42:40;;;;;;;19.73;3.23;;;5.00;79.20;;;;;;6190823;23;20149;-88
2022/01/05 07:45:09;;;;;;;7.60;2.87;;;5.00;79.30;;;;;;6190320;23;20181;-88
2022/01/05 07:47:35;;;;;;;23.00;5.28;;;5.10;79.50;;;;;;6190026;23;20166;-88
2022/01/05 07:50:01;;;;;;;8.30;2.13;;;5.20;79.40;;;;;;6217114;23;20224;-88
2022/01/05 07:52:26;;;;;;;14.63;3.03;;;5.20;78.90;;;;;;6190324;23;20383;-88
2022/01/05 07:54:52;;;;;;;6.57;2.57;;;5.20;78.80;;;;;;6189651;23;20301;-88
2022/01/05 07:57:19;;;;;;;6.38;2.47;;;5.20;79.10;;;;;;6190561;23;20208;-88
2022/01/05 07:59:45;;;;;;;17.88;3.97;;;5.30;79.00;;;;;;6192497;23;20173;-88
2022/01/05 08:02:11;;;;;;;9.57;3.38;;;5.30;79.10;;;;;;6196794;23;20549;-88
2022/01/05 08:04:36;;;;;;;13.97;3.73;;;5.20;79.00;;;;;;6196383;23;20153;-88
2022/01/05 08:07:02;;;;;;;10.37;3.47;;;5.20;79.20;;;;;;6201484;23;20502;-88
2022/01/05 08:09:29;;;;;;;9.00;3.30;;;5.50;79.50;;;;;;6201043;23;20159;-88
2022/01/05 08:11:56;;;;;;;7.72;2.60;;;5.50;79.20;;;;;;6197953;23;20169;-88
2022/01/05 08:14:22;;;;;;;7.70;2.75;;;5.50;79.00;;;;;;6222552;23;20153;-88
2022/01/05 08:16:47;;;;;;;13.10;4.53;;;5.50;78.90;;;;;;6196455;23;20177;-88
2022/01/05 08:19:13;;;;;;;14.17;4.40;;;5.50;79.00;;;;;;6196418;23;20600;-88
2022/01/05 08:21:39;;;;;;;7.27;3.33;;;5.50;79.10;;;;;;6190501;23;20157;-88
2022/01/05 08:24:05;;;;;;;19.37;2.90;;;5.50;79.10;;;;;;6190081;23;20565;-87
2022/01/05 08:26:31;;;;;;;18.30;3.30;;;5.60;79.20;;;;;;6190566;23;20189;-88
2022/01/05 08:28:57;;;;;;;17.47;3.27;;;5.60;79.00;;;;;;6190674;23;20158;-89
2022/01/05 08:31:22;;;;;;;17.60;3.88;;;5.70;79.10;;;;;;6190492;23;20153;-88
2022/01/05 08:33:48;;;;;;;12.27;3.50;;;5.70;78.80;;;;;;6190126;23;20212;-88
2022/01/05 08:36:14;;;;;;;9.57;3.67;;;5.70;78.50;;;;;;6190249;23;20902;-88
2022/01/05 08:38:40;;;;;;;20.30;3.63;;;5.80;79.30;;;;;;6190458;23;20380;-88
2022/01/05 08:41:06;;;;;;;16.13;3.47;;;5.90;78.60;;;;;;6190487;23;20941;-88
2022/01/05 08:43:33;;;;;;;8.37;3.20;;;5.90;78.20;;;;;;6189700;23;20392;-88
2022/01/05 08:45:58;;;;;;;8.20;2.78;;;6.00;78.00;;;;;;6189936;23;20428;-88
2022/01/05 08:48:24;;;;;;;6.63;2.60;;;6.00;77.80;;;;;;6190042;23;20627;-88
2022/01/05 08:50:51;;;;;;;17.53;3.73;;;6.10;77.90;;;;;;6190162;23;20153;-88
2022/01/05 08:53:17;;;;;;;8.52;3.10;;;6.10;77.60;;;;;;6189775;23;20153;-88
2022/01/05 08:55:45;;;;;;;12.95;4.72;;;6.00;77.70;;;;;;6190534;23;20237;-88
2022/01/05 08:58:12;;;;;;;14.90;3.00;;;6.10;77.80;;;;;;6201341;23;20157;-87
2022/01/05 09:00:41;;;;;;;14.15;2.88;;;6.20;77.80;;;;;;6196094;23;20261;-88
2022/01/05 09:03:07;;;;;;;10.18;3.25;;;6.20;77.70;;;;;;6190397;23;20164;-88
2022/01/05 09:05:33;;;;;;;13.98;4.00;;;6.30;78.50;;;;;;6189718;23;20220;-88
2022/01/05 09:08:00;;;;;;;10.85;2.90;;;6.20;77.80;;;;;;6189951;23;20657;-88
2022/01/05 09:10:26;;;;;;;9.85;3.00;;;6.10;78.20;;;;;;6191977;23;20259;-88
2022/01/05 09:12:53;;;;;;;12.37;2.93;;;6.10;78.60;;;;;;6216275;23;20153;-87
2022/01/05 09:15:19;;;;;;;11.20;2.90;;;6.10;78.80;;;;;;6197408;23;20217;-89
2022/01/05 09:17:45;;;;;;;26.13;3.85;;;6.20;79.00;;;;;;6190369;23;20256;-88
2022/01/05 09:20:11;;;;;;;10.32;2.85;;;6.30;79.00;;;;;;6190363;23;20249;-89
2022/01/05 09:22:38;;;;;;;17.40;4.18;;;6.30;79.10;;;;;;6189869;23;20153;-89
2022/01/05 09:25:10;;;;;;;14.23;3.60;;;6.40;79.10;;;;;;6217653;23;20145;-89
2022/01/05 09:27:36;;;;;;;15.07;3.33;;;6.20;78.70;;;;;;6190954;23;20208;-88
2022/01/05 09:30:04;;;;;;;16.60;4.47;;;6.30;78.90;;;;;;6221768;23;20157;-89
2022/01/05 09:32:30;;;;;;;18.55;3.90;;;6.30;79.10;;;;;;6195396;23;20262;-89
2022/01/05 09:35:09;;;;;;;8.50;2.70;;;6.20;78.70;;;;;;6197119;23;20173;-89
2022/01/05 09:37:40;;;;;;;8.65;2.83;;;6.40;79.10;;;;;;6194427;23;20176;-89
2022/01/05 09:42:50;;;;;;;15.80;3.08;;;6.50;78.60;;;;;;6219832;23;20597;-88
2022/01/05 09:45:18;;;;;;;9.50;2.53;;;6.70;78.40;;;;;;6192182;23;20176;-87
2022/01/05 09:48:12;;;;;;;8.23;2.50;;;6.70;78.20;;;;;;6192533;23;20442;-89
2022/01/05 09:51:06;;;;;;;9.38;4.25;;;6.70;78.00;;;;;;6219120;23;20146;-88
2022/01/05 09:53:33;;;;;;;10.57;2.95;;;6.70;77.90;;;;;;6191463;23;20153;-89
2022/01/05 09:55:59;;;;;;;5.32;2.42;;;6.70;77.80;;;;;;6195213;23;20225;-89
2022/01/05 09:58:28;;;;;;;15.27;2.33;;;6.80;77.60;;;;;;6226874;23;20180;-89
2022/01/05 10:00:54;;;;;;;18.73;3.78;;;6.80;77.70;;;;;;6206721;23;20161;-88
2022/01/05 10:03:22;;;;;;;15.63;2.77;;;6.80;77.60;;;;;;6198392;23;20184;-89
2022/01/05 10:05:47;;;;;;;8.82;2.58;;;6.90;77.50;;;;;;6195944;23;20535;-89
2022/01/05 10:08:13;;;;;;;10.30;2.43;;;7.00;77.10;;;;;;6202043;23;20157;-89
2022/01/05 10:10:41;;;;;;;10.60;2.92;;;7.10;76.80;;;;;;6208237;23;20408;-89
2022/01/05 10:13:08;;;;;;;7.20;2.38;;;7.30;76.50;;;;;;6195827;23;20228;-89
2022/01/05 10:15:35;;;;;;;6.70;2.83;;;7.40;75.80;;;;;;6223755;23;20172;-89
2022/01/05 10:18:14;;;;;;;7.75;2.13;;;7.40;75.30;;;;;;6196343;23;20153;-88
2022/01/05 10:21:07;;;;;;;5.53;2.60;;;7.30;75.00;;;;;;6192947;23;20160;-89
2022/01/05 10:23:50;;;;;;;6.15;2.40;;;7.10;74.80;;;;;;6213309;23;20670;-89
2022/01/05 10:26:39;;;;;;;12.88;2.60;;;7.00;74.80;;;;;;6191988;23;20193;-89
2022/01/05 10:29:14;;;;;;;6.93;2.65;;;7.00;75.40;;;;;;6193414;23;20157;-89
2022/01/05 10:31:42;;;;;;;11.50;2.80;;;7.00;75.40;;;;;;6219737;23;20160;-89
2022/01/05 10:34:22;;;;;;;20.15;5.85;;;6.90;74.50;;;;;;6193271;23;20168;-89
2022/01/05 10:36:53;;;;;;;11.57;2.83;;;6.80;74.40;;;;;;6193448;23;20181;-90
2022/01/05 10:39:35;;;;;;;21.92;3.40;;;6.90;75.10;;;;;;6193574;23;20156;-89
2022/01/05 10:42:10;;;;;;;22.00;7.47;;;7.20;76.40;;;;;;6194193;23;20611;-88
2022/01/05 10:44:36;;;;;;;15.05;3.22;;;7.40;74.60;;;;;;6194206;23;20811;-89
2022/01/05 10:47:05;;;;;;;11.30;2.97;;;7.20;72.90;;;;;;6219029;23;20181;-89
2022/01/05 10:49:37;;;;;;;6.60;2.58;;;7.10;72.70;;;;;;6196347;23;20165;-88
2022/01/05 10:52:28;;;;;;;6.57;2.38;;;6.90;72.80;;;;;;6213546;23;20173;-89
2022/01/05 10:55:15;;;;;;;19.27;3.30;;;6.90;72.90;;;;;;6223694;23;20137;-89
2022/01/05 10:58:06;;;;;;;13.07;3.55;;;7.00;73.00;;;;;;6196067;23;20177;-88
2022/01/05 11:00:40;;;;;;;11.73;2.53;;;6.80;72.80;;;;;;6199984;23;20160;-89
2022/01/05 11:03:30;;;;;;;11.55;2.10;;;6.80;72.80;;;;;;6202429;23;20157;-89
2022/01/05 11:06:16;;;;;;;17.90;2.83;;;6.70;73.10;;;;;;6216083;23;20280;-88
2022/01/05 11:08:56;;;;;;;6.15;2.40;;;6.80;72.70;;;;;;6197895;23;20145;-88
2022/01/05 11:11:39;;;;;;;8.20;2.75;;;6.70;72.60;;;;;;6193319;23;20157;-89
2022/01/05 11:14:16;;;;;;;5.40;2.10;;;6.80;72.90;;;;;;6191698;23;20192;-89
2022/01/05 11:16:52;;;;;;;8.82;2.60;;;6.90;72.90;;;;;;6191867;23;20681;-89
2022/01/05 11:19:29;;;;;;;9.23;2.55;;;6.80;72.60;;;;;;6191529;23;20160;-89
2022/01/05 11:22:06;;;;;;;13.60;3.25;;;6.80;72.50;;;;;;6219162;23;20143;-89
2022/01/05 11:24:41;;;;;;;12.77;3.67;;;6.90;72.40;;;;;;6192068;23;20233;-89
2022/01/05 11:27:10;;;;;;;9.20;2.30;;;6.80;72.60;;;;;;6191383;23;20203;-89
2022/01/05 11:29:36;;;;;;;13.73;2.35;;;7.00;72.70;;;;;;6191621;23;20244;-89
2022/01/05 11:32:04;;;;;;;15.10;3.05;;;7.10;72.20;;;;;;6192718;23;20154;-89
2022/01/05 11:34:31;;;;;;;12.27;2.70;;;7.10;72.00;;;;;;6191659;23;20160;-89
2022/01/05 11:36:58;;;;;;;12.20;2.67;;;7.00;72.00;;;;;;6191785;23;20251;-89
2022/01/05 11:39:25;;;;;;;4.28;2.30;;;7.00;71.90;;;;;;6216414;23;20153;-89
2022/01/05 11:41:52;;;;;;;15.10;2.83;;;7.00;72.10;;;;;;6189618;23;20157;-89
2022/01/05 11:44:18;;;;;;;5.72;2.22;;;7.10;72.10;;;;;;6190848;23;20168;-88
2022/01/05 11:46:46;;;;;;;8.55;2.05;;;7.20;71.70;;;;;;6194482;23;20193;-88
2022/01/05 11:49:15;;;;;;;11.68;3.08;;;7.10;71.10;;;;;;6192599;23;20160;-88
2022/01/05 11:51:42;;;;;;;9.75;2.75;;;7.10;70.80;;;;;;6193310;23;20184;-88
2022/01/05 11:54:19;;;;;;;9.77;2.50;;;7.10;70.20;;;;;;6193012;23;20188;-89
2022/01/05 11:56:49;;;;;;;8.52;2.45;;;7.10;69.90;;;;;;6193617;23;20217;-89
2022/01/05 11:59:34;;;;;;;9.45;2.47;;;7.00;70.10;;;;;;6194877;23;20158;-89
2022/01/05 12:02:13;;;;;;;17.83;3.53;;;7.10;70.20;;;;;;6225537;23;20133;-88
2022/01/05 12:05:01;;;;;;;8.50;2.30;;;7.00;70.10;;;;;;6195022;23;20184;-89
2022/01/05 12:07:50;;;;;;;20.27;3.47;;;7.20;70.40;;;;;;6191550;23;20191;-88
2022/01/05 12:10:21;;;;;;;6.20;2.22;;;7.30;70.40;;;;;;6219072;23;20129;-89
2022/01/05 12:12:59;;;;;;;6.95;2.30;;;7.10;70.00;;;;;;6191814;23;20153;-89
2022/01/05 12:15:46;;;;;;;7.68;1.92;;;7.10;69.90;;;;;;6191661;23;20177;-89
2022/01/05 12:18:21;;;;;;;13.25;2.20;;;7.30;70.00;;;;;;6193058;23;20148;-89
2022/01/05 12:20:47;;;;;;;20.70;2.90;;;7.40;69.70;;;;;;6219021;23;20165;-89
2022/01/05 12:23:18;;;;;;;9.20;3.20;;;7.40;69.60;;;;;;6217390;23;20149;-89
2022/01/05 12:26:07;;;;;;;7.50;2.22;;;7.60;70.50;;;;;;6191660;23;20443;-89
2022/01/05 12:28:36;;;;;;;5.40;1.90;;;7.60;69.00;;;;;;6219859;23;20514;-89
2022/01/05 12:31:03;;;;;;;16.90;2.42;;;7.60;68.70;;;;;;6191588;23;20212;-89
2022/01/05 12:33:48;;;;;;;4.25;2.08;;;7.80;68.70;;;;;;6191654;23;20288;-89
2022/01/05 12:36:35;;;;;;;6.32;1.88;;;8.00;68.60;;;;;;6192422;23;20255;-88
2022/01/05 12:39:04;;;;;;;6.40;2.40;;;7.90;67.80;;;;;;6197518;23;20145;-89
2022/01/05 12:41:38;;;;;;;19.52;2.88;;;8.00;67.40;;;;;;6196174;23;20180;-89
2022/01/05 12:44:16;;;;;;;6.97;2.25;;;8.10;67.20;;;;;;6202631;23;20157;-89
2022/01/05 12:46:52;;;;;;;11.32;2.40;;;7.90;66.40;;;;;;6201249;23;20489;-89
2022/01/05 12:49:26;;;;;;;11.30;2.00;;;8.00;66.80;;;;;;6192815;23;20198;-89
2022/01/05 12:52:02;;;;;;;13.75;2.25;;;8.00;66.40;;;;;;6193005;23;20227;-88
2022/01/05 12:54:31;;;;;;;7.00;2.78;;;8.00;66.20;;;;;;6198944;23;20579;-89
2022/01/05 12:57:05;;;;;;;8.77;1.98;;;7.90;66.60;;;;;;6203163;23;20226;-89
2022/01/05 12:59:36;;;;;;;10.35;1.95;;;7.70;67.10;;;;;;6212499;23;20144;-89
2022/01/05 13:02:06;;;;;;;8.65;2.30;;;7.70;67.60;;;;;;6192372;23;20251;-89
2022/01/05 13:04:35;;;;;;;6.15;2.15;;;7.90;67.60;;;;;;6192164;23;20154;-88